createdAt,value
2018-03-16T00:01:35.253Z,51.13
2018-03-16T00:04:03.133Z,52.73
2018-03-16T00:06:31.013Z,47.67
2018-03-16T00:08:58.953Z,52.87
2018-03-16T00:11:26.878Z,56.37
2018-03-16T00:13:54.782Z,55.10
2018-03-16T00:16:22.703Z,54.53
2018-03-16T00:18:50.626Z,52.30
2018-03-16T00:21:18.505Z,58.77
2018-03-16T00:23:46.434Z,62.97
2018-03-16T00:26:14.310Z,54.73
2018-03-16T00:28:42.166Z,46.90
2018-03-16T00:31:10.138Z,57.23
2018-03-16T00:33:38.033Z,56.07
2018-03-16T00:36:05.973Z,52.97
2018-03-16T00:38:33.929Z,53.20
2018-03-16T00:41:01.782Z,53.43
2018-03-16T00:43:29.836Z,55.27
2018-03-16T00:45:57.681Z,56.93
2018-03-16T00:48:25.539Z,55.10
2018-03-16T00:50:53.516Z,53.87
2018-03-16T00:53:21.352Z,54.67
2018-03-16T00:55:49.233Z,49.20
2018-03-16T00:58:17.149Z,49.10
2018-03-16T01:00:45.007Z,52.37
2018-03-16T01:03:12.877Z,55.97
2018-03-16T01:05:41.781Z,55.17
2018-03-16T01:08:09.628Z,57.70
2018-03-16T01:10:37.626Z,57.10
2018-03-16T01:13:05.503Z,56.80
2018-03-16T01:15:33.521Z,43.87
2018-03-16T01:18:01.385Z,47.57
2018-03-16T01:20:35.355Z,49.47
2018-03-16T01:23:03.349Z,47.80
2018-03-16T01:25:31.196Z,50.97
2018-03-16T01:27:59.124Z,49.80
2018-03-16T01:30:26.989Z,45.70
2018-03-16T01:32:55.190Z,50.10
2018-03-16T01:35:23.079Z,41.93
2018-03-16T01:37:51.210Z,51.03
2018-03-16T01:40:19.061Z,49.43
2018-03-16T01:42:47.091Z,52.03
2018-03-16T01:45:14.956Z,45.23
2018-03-16T01:47:42.816Z,43.83
2018-03-16T01:50:10.745Z,42.90
2018-03-16T01:52:38.603Z,41.00
2018-03-16T01:55:06.476Z,37.27
2018-03-16T01:57:34.381Z,39.77
2018-03-16T02:00:02.305Z,36.97
2018-03-16T02:02:30.188Z,40.20
2018-03-16T02:04:58.061Z,32.07
2018-03-16T02:07:25.936Z,37.90
2018-03-16T02:09:53.777Z,33.03
2018-03-16T02:12:22.745Z,33.50
2018-03-16T02:14:50.585Z,30.90
2018-03-16T02:17:18.444Z,34.07
2018-03-16T02:19:46.345Z,29.10
2018-03-16T02:22:15.228Z,32.50
2018-03-16T02:24:43.125Z,28.23
2018-03-16T02:27:10.998Z,25.97
2018-03-16T02:29:38.928Z,25.47
2018-03-16T02:32:06.786Z,25.83
2018-03-16T02:34:34.638Z,29.60
2018-03-16T02:37:02.500Z,31.13
2018-03-16T02:39:30.380Z,22.43
2018-03-16T02:41:58.283Z,24.90
2018-03-16T02:44:26.190Z,30.80
2018-03-16T02:46:54.044Z,26.07
2018-03-16T02:49:21.944Z,27.50
2018-03-16T02:51:49.802Z,20.83
2018-03-16T02:54:17.770Z,25.73
2018-03-16T02:56:45.695Z,28.87
2018-03-16T02:59:13.548Z,27.07
2018-03-16T03:01:41.428Z,28.37
2018-03-16T03:04:09.280Z,29.90
2018-03-16T03:06:37.194Z,20.67
2018-03-16T03:09:05.094Z,26.40
2018-03-16T03:11:32.935Z,27.43
2018-03-16T03:14:01.778Z,29.00
2018-03-16T03:16:29.657Z,28.63
2018-03-16T03:18:57.556Z,31.70
2018-03-16T03:21:25.407Z,30.20
2018-03-16T03:23:53.318Z,26.83
2018-03-16T03:26:21.181Z,28.63
2018-03-16T03:28:49.044Z,24.50
2018-03-16T03:31:16.934Z,29.73
2018-03-16T03:33:44.796Z,33.57
2018-03-16T03:36:12.718Z,38.20
2018-03-16T03:38:40.621Z,33.27
2018-03-16T03:41:08.460Z,27.73
2018-03-16T03:43:36.313Z,27.80
2018-03-16T03:46:04.196Z,21.57
2018-03-16T03:48:32.068Z,33.73
2018-03-16T03:50:59.925Z,25.50
2018-03-16T03:53:27.808Z,32.20
2018-03-16T03:55:55.677Z,35.50
2018-03-16T03:58:23.546Z,32.40
2018-03-16T04:00:51.435Z,32.63
2018-03-16T04:03:19.306Z,31.83
2018-03-16T04:05:47.178Z,31.30
2018-03-16T04:08:15.058Z,31.67
2018-03-16T04:10:42.916Z,31.47
2018-03-16T04:13:10.777Z,29.93
2018-03-16T04:15:38.711Z,35.57
2018-03-16T04:18:06.572Z,22.37
2018-03-16T04:20:34.529Z,25.57
2018-03-16T04:23:02.419Z,33.23
2018-03-16T04:25:30.298Z,26.43
2018-03-16T04:27:58.209Z,32.30
2018-03-16T04:30:26.048Z,35.13
2018-03-16T04:32:53.888Z,28.47
2018-03-16T04:35:21.787Z,30.40
2018-03-16T04:37:49.624Z,32.40
2018-03-16T04:40:17.807Z,27.07
2018-03-16T04:42:45.705Z,25.97
2018-03-16T04:45:13.585Z,31.97
2018-03-16T04:47:41.429Z,34.37
2018-03-16T04:50:09.330Z,34.50
2018-03-16T04:52:37.200Z,27.67
2018-03-16T04:55:06.037Z,31.03
2018-03-16T04:57:33.912Z,30.17
2018-03-16T05:00:01.768Z,28.20
2018-03-16T05:02:29.643Z,30.83
2018-03-16T05:04:57.546Z,31.57
2018-03-16T05:07:25.460Z,32.50
2018-03-16T05:09:53.312Z,31.47
2018-03-16T05:12:21.258Z,34.40
2018-03-16T05:14:49.111Z,30.27
2018-03-16T05:17:17.026Z,30.93
2018-03-16T05:19:45.128Z,33.60
2018-03-16T05:22:12.982Z,31.03
2018-03-16T05:24:40.827Z,33.90
2018-03-16T05:27:08.695Z,27.17
2018-03-16T05:29:36.673Z,33.83
2018-03-16T05:32:04.506Z,29.27
2018-03-16T05:34:32.502Z,33.30
2018-03-16T05:37:01.412Z,32.47
2018-03-16T05:39:29.262Z,28.97
2018-03-16T05:41:57.208Z,26.90
2018-03-16T05:44:25.069Z,27.50
2018-03-16T05:46:52.973Z,23.13
2018-03-16T05:49:20.873Z,30.97
2018-03-16T05:51:48.740Z,30.83
2018-03-16T05:54:16.595Z,28.50
2018-03-16T05:56:44.560Z,28.10
2018-03-16T05:59:12.414Z,27.13
2018-03-16T06:01:40.302Z,29.30
2018-03-16T06:04:08.220Z,21.33
2018-03-16T06:06:36.073Z,27.17
2018-03-16T06:09:03.953Z,22.70
2018-03-16T06:11:31.923Z,21.73
2018-03-16T06:13:59.760Z,27.23
2018-03-16T06:16:27.629Z,26.83
2018-03-16T06:18:55.522Z,26.83
2018-03-16T06:21:24.289Z,31.80
2018-03-16T06:23:52.294Z,28.70
2018-03-16T06:26:20.172Z,22.10
2018-03-16T06:28:48.012Z,24.60
2018-03-16T06:31:20.126Z,26.50
2018-03-16T06:33:48.725Z,25.17
2018-03-16T06:36:16.873Z,27.60
2018-03-16T06:38:44.741Z,28.27
2018-03-16T06:41:13.441Z,22.03
2018-03-16T06:43:41.319Z,27.40
2018-03-16T06:46:09.183Z,23.87
2018-03-16T06:48:37.053Z,20.73
2018-03-16T06:51:04.922Z,25.87
2018-03-16T06:53:32.990Z,22.43
2018-03-16T06:56:00.972Z,24.20
2018-03-16T06:58:28.848Z,23.10
2018-03-16T07:00:56.718Z,31.80
2018-03-16T07:03:24.631Z,28.97
2018-03-16T07:05:52.507Z,26.67
2018-03-16T07:08:20.361Z,22.80
2018-03-16T07:10:48.233Z,26.83
2018-03-16T07:13:16.145Z,19.23
2018-03-16T07:15:44.040Z,24.47
2018-03-16T07:18:11.920Z,24.63
2018-03-16T07:20:39.830Z,27.70
2018-03-16T07:23:07.731Z,20.60
2018-03-16T07:25:35.635Z,21.60
2018-03-16T07:28:03.517Z,21.93
2018-03-16T07:30:31.397Z,19.03
2018-03-16T07:32:59.293Z,21.53
2018-03-16T07:35:27.180Z,20.43
2018-03-16T07:37:55.455Z,22.17
2018-03-16T07:40:27.205Z,21.33
2018-03-16T07:42:55.070Z,16.30
2018-03-16T07:45:30.895Z,18.57
2018-03-16T07:47:58.749Z,18.90
2018-03-16T07:50:26.709Z,16.60
2018-03-16T07:52:54.736Z,21.93
2018-03-16T07:55:22.611Z,21.40
2018-03-16T07:57:50.694Z,18.43
2018-03-16T08:00:18.558Z,22.63
2018-03-16T08:02:46.412Z,18.57
2018-03-16T08:05:14.312Z,17.83
2018-03-16T08:07:42.157Z,14.60
2018-03-16T08:10:10.032Z,13.67
2018-03-16T08:12:37.872Z,14.03
2018-03-16T08:15:05.842Z,15.53
2018-03-16T08:17:33.756Z,15.97
2018-03-16T08:20:08.625Z,18.17
2018-03-16T08:22:36.567Z,14.10
2018-03-16T08:25:04.512Z,13.23
2018-03-16T08:27:32.455Z,13.63
2018-03-16T08:30:00.480Z,16.30
2018-03-16T08:32:28.337Z,21.20
2018-03-16T08:34:56.261Z,15.00
2018-03-16T08:37:24.096Z,15.90
2018-03-16T08:39:51.963Z,16.43
2018-03-16T08:42:19.795Z,15.50
2018-03-16T08:44:47.694Z,14.67
2018-03-16T08:47:15.555Z,15.47
2018-03-16T08:49:43.489Z,16.20
2018-03-16T08:52:11.408Z,14.47
2018-03-16T08:54:39.240Z,16.80
2018-03-16T08:57:07.119Z,15.67
2018-03-16T08:59:34.992Z,19.37
2018-03-16T09:02:02.864Z,19.97
2018-03-16T09:04:30.777Z,17.20
2018-03-16T09:06:58.678Z,17.50
2018-03-16T09:09:26.530Z,13.10
2018-03-16T09:11:54.479Z,16.63
2018-03-16T09:14:22.323Z,19.83
2018-03-16T09:16:50.248Z,17.90
2018-03-16T09:19:18.369Z,17.00
2018-03-16T09:21:46.273Z,16.00
2018-03-16T09:24:14.191Z,14.43
2018-03-16T09:26:42.038Z,16.83
2018-03-16T09:29:09.925Z,19.63
2018-03-16T09:31:37.818Z,14.87
2018-03-16T09:34:05.716Z,14.40
2018-03-16T09:36:33.648Z,17.03
2018-03-16T09:39:01.517Z,15.90
2018-03-16T09:41:29.371Z,20.50
2018-03-16T09:43:57.298Z,17.23
2018-03-16T09:46:25.184Z,18.77
2018-03-16T09:48:53.233Z,13.07
2018-03-16T09:51:21.103Z,17.23
2018-03-16T09:53:48.942Z,15.33
2018-03-16T09:56:16.790Z,11.47
2018-03-16T09:58:44.698Z,16.57
2018-03-16T10:01:12.556Z,17.17
2018-03-16T10:03:40.397Z,15.17
2018-03-16T10:06:08.549Z,17.10
2018-03-16T10:08:36.456Z,15.60
2018-03-16T10:11:04.311Z,16.10
2018-03-16T10:13:32.300Z,13.40
2018-03-16T10:16:00.240Z,14.37
2018-03-16T10:18:28.136Z,15.73
2018-03-16T10:20:55.992Z,11.70
2018-03-16T10:23:23.936Z,16.83
2018-03-16T10:25:51.841Z,20.47
2018-03-16T10:28:19.718Z,17.63
2018-03-16T10:30:47.613Z,16.50
2018-03-16T10:33:15.480Z,17.70
2018-03-16T10:35:43.372Z,17.20
2018-03-16T10:38:11.237Z,19.73
2018-03-16T10:40:39.070Z,17.07
2018-03-16T10:43:06.927Z,13.50
2018-03-16T10:45:34.792Z,15.40
2018-03-16T10:48:02.693Z,15.90
2018-03-16T10:50:30.569Z,15.10
2018-03-16T10:52:58.496Z,17.93
2018-03-16T10:55:26.337Z,14.60
2018-03-16T10:57:54.184Z,18.10
2018-03-16T11:00:28.229Z,13.80
2018-03-16T11:03:14.016Z,15.37
2018-03-16T11:05:48.107Z,15.50
2018-03-16T11:08:33.764Z,16.07
2018-03-16T11:11:02.001Z,16.57
2018-03-16T11:13:30.171Z,14.83
2018-03-16T11:15:58.055Z,17.70
2018-03-16T11:18:25.918Z,13.80
2018-03-16T11:20:53.787Z,21.97
2018-03-16T11:23:21.801Z,12.87
2018-03-16T11:25:49.824Z,18.87
2018-03-16T11:28:17.712Z,15.07
2018-03-16T11:30:45.597Z,20.83
2018-03-16T11:33:13.505Z,18.63
2018-03-16T11:35:41.370Z,22.17
2018-03-16T11:38:09.237Z,18.37
2018-03-16T11:40:38.107Z,19.07
2018-03-16T11:43:05.998Z,16.80
2018-03-16T11:45:33.876Z,19.77
2018-03-16T11:48:01.815Z,20.70
2018-03-16T11:50:29.977Z,21.40
2018-03-16T11:52:57.837Z,21.77
2018-03-16T11:55:25.721Z,19.70
2018-03-16T11:57:53.607Z,20.30
2018-03-16T12:00:21.580Z,52.10
2018-03-16T12:02:50.532Z,19.90
2018-03-16T12:05:18.668Z,20.60
2018-03-16T12:07:46.569Z,27.30
2018-03-16T12:10:14.445Z,22.20
2018-03-16T12:12:42.310Z,24.80
2018-03-16T12:15:10.193Z,22.00
2018-03-16T12:17:38.090Z,22.73
2018-03-16T12:20:05.970Z,28.93
2018-03-16T12:22:33.842Z,18.20
2018-03-16T12:25:01.788Z,20.40
2018-03-16T12:27:29.740Z,23.33
2018-03-16T12:29:57.629Z,25.83
2018-03-16T12:32:32.269Z,25.93
2018-03-16T12:35:00.139Z,25.27
2018-03-16T12:37:28.017Z,24.13
2018-03-16T12:39:55.936Z,20.80
2018-03-16T12:42:23.808Z,21.30
2018-03-16T12:44:51.842Z,19.90
2018-03-16T12:47:19.772Z,22.97
2018-03-16T12:49:47.595Z,27.83
2018-03-16T12:52:15.467Z,22.73
2018-03-16T12:54:43.343Z,25.37
2018-03-16T12:57:11.196Z,22.93
2018-03-16T12:59:39.084Z,21.00
2018-03-16T13:02:06.996Z,20.30
2018-03-16T13:04:34.847Z,20.80
2018-03-16T13:07:02.888Z,20.70
2018-03-16T13:09:30.836Z,25.07
2018-03-16T13:11:58.703Z,22.23
2018-03-16T13:14:26.601Z,22.73
2018-03-16T13:16:54.575Z,20.57
2018-03-16T13:19:22.624Z,21.10
2018-03-16T13:21:50.502Z,15.73
2018-03-16T13:24:18.444Z,21.00
2018-03-16T13:26:46.288Z,16.17
2018-03-16T13:29:14.210Z,20.80
2018-03-16T13:31:42.129Z,24.20
2018-03-16T13:34:10.046Z,17.73
2018-03-16T13:36:37.906Z,20.67
2018-03-16T13:39:05.828Z,18.10
2018-03-16T13:41:33.709Z,18.13
2018-03-16T13:44:01.644Z,19.03
2018-03-16T13:46:29.685Z,20.10
2018-03-16T13:48:57.702Z,19.67
2018-03-16T13:51:25.570Z,17.73
2018-03-16T13:53:53.537Z,22.63
2018-03-16T13:56:21.464Z,19.37
2018-03-16T13:58:49.303Z,16.40
2018-03-16T14:01:18.620Z,21.30
2018-03-16T14:03:46.584Z,18.20
2018-03-16T14:06:14.428Z,21.43
2018-03-16T14:08:42.294Z,21.10
2018-03-16T14:11:10.136Z,19.87
2018-03-16T14:13:37.980Z,16.87
2018-03-16T14:16:05.880Z,18.57
2018-03-16T14:18:34.179Z,20.30
2018-03-16T14:21:02.078Z,17.40
2018-03-16T14:23:29.980Z,18.63
2018-03-16T14:25:58.303Z,22.53
2018-03-16T14:28:26.301Z,19.33
2018-03-16T14:30:54.229Z,18.93
2018-03-16T14:33:22.088Z,20.20
2018-03-16T14:35:49.938Z,15.07
2018-03-16T14:38:17.890Z,20.07
2018-03-16T14:40:45.745Z,19.37
2018-03-16T14:43:13.666Z,21.50
2018-03-16T14:45:41.808Z,22.23
2018-03-16T14:48:09.669Z,22.67
2018-03-16T14:50:37.536Z,18.50
2018-03-16T14:53:05.461Z,16.97
2018-03-16T14:55:33.328Z,16.83
2018-03-16T14:58:01.242Z,20.67
2018-03-16T15:00:29.145Z,16.93
2018-03-16T15:02:57.030Z,18.40
2018-03-16T15:05:24.913Z,18.53
2018-03-16T15:07:52.820Z,18.70
2018-03-16T15:10:20.673Z,16.60
2018-03-16T15:12:48.529Z,15.80
2018-03-16T15:15:16.448Z,16.20
2018-03-16T15:17:44.392Z,13.90
2018-03-16T15:20:12.247Z,21.43
2018-03-16T15:22:40.136Z,19.10
2018-03-16T15:25:07.979Z,15.60
2018-03-16T15:27:35.873Z,16.17
2018-03-16T15:30:04.278Z,17.30
2018-03-16T15:32:32.233Z,14.17
2018-03-16T15:35:00.172Z,17.63
2018-03-16T15:37:28.027Z,12.93
2018-03-16T15:39:55.989Z,13.10
2018-03-16T15:42:23.873Z,14.93
2018-03-16T15:44:51.740Z,12.53
2018-03-16T15:47:19.688Z,13.67
2018-03-16T15:49:47.608Z,9.70
2018-03-16T15:52:15.578Z,10.17
2018-03-16T15:54:43.489Z,11.10
2018-03-16T15:57:11.347Z,14.93
2018-03-16T15:59:39.208Z,9.63
2018-03-16T16:02:07.084Z,11.43
2018-03-16T16:04:35.113Z,9.30
2018-03-16T16:07:03.120Z,7.73
2018-03-16T16:09:31.084Z,12.07
2018-03-16T16:11:58.936Z,11.17
2018-03-16T16:14:26.808Z,8.67
2018-03-16T16:16:54.703Z,7.80
2018-03-16T16:19:22.625Z,8.93
2018-03-16T16:21:50.482Z,9.20
2018-03-16T16:24:18.389Z,9.70
2018-03-16T16:26:46.237Z,8.47
2018-03-16T16:29:14.088Z,11.53
2018-03-16T16:31:41.972Z,12.10
2018-03-16T16:34:09.884Z,7.90
2018-03-16T16:36:37.942Z,12.47
2018-03-16T16:39:05.833Z,13.23
2018-03-16T16:41:33.754Z,12.03
2018-03-16T16:44:06.188Z,10.93
2018-03-16T16:46:34.498Z,10.50
2018-03-16T16:49:02.420Z,7.77
2018-03-16T16:51:30.286Z,9.97
2018-03-16T16:53:58.221Z,9.40
2018-03-16T16:56:28.102Z,14.40
2018-03-16T16:58:56.057Z,9.07
2018-03-16T17:01:24.347Z,10.13
2018-03-16T17:03:53.195Z,12.80
2018-03-16T17:06:21.140Z,10.13
2018-03-16T17:08:49.512Z,14.50
2018-03-16T17:11:17.374Z,11.63
2018-03-16T17:13:45.301Z,11.63
2018-03-16T17:16:13.189Z,11.80
2018-03-16T17:18:41.041Z,10.93
2018-03-16T17:21:11.641Z,10.60
2018-03-16T17:23:39.631Z,7.87
2018-03-16T17:26:07.653Z,13.57
2018-03-16T17:28:35.537Z,10.37
2018-03-16T17:31:03.625Z,7.47
2018-03-16T17:33:31.552Z,9.03
2018-03-16T17:36:01.637Z,14.60
2018-03-16T17:38:29.680Z,9.80
2018-03-16T17:40:57.532Z,9.87
2018-03-16T17:43:25.419Z,9.73
2018-03-16T17:45:53.349Z,9.33
2018-03-16T17:48:21.212Z,10.70
2018-03-16T17:50:49.243Z,14.00
2018-03-16T17:53:17.129Z,8.43
2018-03-16T17:55:45.070Z,7.80
2018-03-16T17:58:12.924Z,6.53
2018-03-16T18:00:40.850Z,10.73
2018-03-16T18:03:08.806Z,12.93
2018-03-16T18:05:36.738Z,11.10
2018-03-16T18:08:04.706Z,12.70
2018-03-16T18:10:32.679Z,9.03
2018-03-16T18:13:00.569Z,10.00
2018-03-16T18:15:28.583Z,8.17
2018-03-16T18:17:56.442Z,9.67
2018-03-16T18:20:24.347Z,12.07
2018-03-16T18:22:52.401Z,11.40
2018-03-16T18:25:20.321Z,9.37
2018-03-16T18:27:48.545Z,14.13
2018-03-16T18:30:16.462Z,18.13
2018-03-16T18:32:44.418Z,9.37
2018-03-16T18:35:12.296Z,8.67
2018-03-16T18:37:47.569Z,9.40
2018-03-16T18:40:17.230Z,11.30
2018-03-16T18:42:45.216Z,13.70
2018-03-16T18:45:13.047Z,12.30
2018-03-16T18:47:41.502Z,7.03
2018-03-16T18:50:09.403Z,7.90
2018-03-16T18:52:37.292Z,10.07
2018-03-16T18:55:05.366Z,8.30
2018-03-16T18:57:33.420Z,6.70
2018-03-16T19:00:01.391Z,7.93
2018-03-16T19:02:29.271Z,12.90
2018-03-16T19:04:57.157Z,7.63
2018-03-16T19:07:25.002Z,15.10
2018-03-16T19:09:52.853Z,12.47
2018-03-16T19:12:20.772Z,9.07
2018-03-16T19:14:48.635Z,8.73
2018-03-16T19:17:17.320Z,9.93
2018-03-16T19:19:45.240Z,10.67
2018-03-16T19:22:13.189Z,11.53
2018-03-16T19:24:41.078Z,7.57
2018-03-16T19:27:08.964Z,8.30
2018-03-16T19:29:36.840Z,15.70
2018-03-16T19:32:04.843Z,11.37
2018-03-16T19:34:32.974Z,10.50
2018-03-16T19:37:00.915Z,9.27
2018-03-16T19:39:28.809Z,13.00
2018-03-16T19:41:56.737Z,11.43
2018-03-16T19:44:24.612Z,10.60
2018-03-16T19:47:07.265Z,7.43
2018-03-16T19:49:35.443Z,7.13
2018-03-16T19:52:03.307Z,6.53
2018-03-16T19:54:31.354Z,8.80
2018-03-16T19:56:59.209Z,8.67
2018-03-16T19:59:27.113Z,8.70
2018-03-16T20:01:54.995Z,8.17
2018-03-16T20:04:22.840Z,10.83
2018-03-16T20:06:50.740Z,17.97
2018-03-16T20:09:18.645Z,10.23
2018-03-16T20:11:46.484Z,7.97
2018-03-16T20:14:14.377Z,7.73
2018-03-16T20:16:42.253Z,7.73
2018-03-16T20:19:10.210Z,8.73
2018-03-16T20:21:38.171Z,7.30
2018-03-16T20:24:06.048Z,21.20
2018-03-16T20:26:33.954Z,10.40
2018-03-16T20:29:01.896Z,7.40
2018-03-16T20:31:29.855Z,7.50
2018-03-16T20:33:57.910Z,5.83
2018-03-16T20:36:25.855Z,4.70
2018-03-16T20:38:53.719Z,6.53
2018-03-16T20:41:21.627Z,3.70
2018-03-16T20:43:49.582Z,5.60
2018-03-16T20:46:18.395Z,4.37
2018-03-16T20:48:46.308Z,7.03
2018-03-16T20:51:14.162Z,9.20
2018-03-16T20:53:42.030Z,5.10
2018-03-16T20:56:10.073Z,4.93
2018-03-16T20:58:37.937Z,7.57
2018-03-16T21:01:06.015Z,5.93
2018-03-16T21:03:34.727Z,6.17
2018-03-16T21:06:03.219Z,5.50
2018-03-16T21:08:31.360Z,7.17
2018-03-16T21:10:59.362Z,13.70
2018-03-16T21:13:27.248Z,6.97
2018-03-16T21:15:55.164Z,4.27
2018-03-16T21:18:23.008Z,6.30
2018-03-16T21:20:51.917Z,5.70
2018-03-16T21:23:19.807Z,7.37
2018-03-16T21:25:47.671Z,4.60
2018-03-16T21:28:15.642Z,4.60
2018-03-16T21:30:43.588Z,9.63
2018-03-16T21:33:11.637Z,17.80
2018-03-16T21:35:39.618Z,8.00
2018-03-16T21:38:07.492Z,10.47
2018-03-16T21:40:35.370Z,4.90
2018-03-16T21:43:03.246Z,4.97
2018-03-16T21:45:31.212Z,12.07
2018-03-16T21:47:59.110Z,11.33
2018-03-16T21:50:26.993Z,3.33
2018-03-16T21:52:54.952Z,4.00
2018-03-16T21:55:22.834Z,8.53
2018-03-16T21:57:50.718Z,7.93
2018-03-16T22:00:18.609Z,8.40
2018-03-16T22:02:46.491Z,5.90
2018-03-16T22:05:14.381Z,4.60
2018-03-16T22:07:42.258Z,6.70
2018-03-16T22:10:10.150Z,5.30
2018-03-16T22:12:38.032Z,6.67
2018-03-16T22:15:05.937Z,5.70
2018-03-16T22:17:33.859Z,4.30
2018-03-16T22:20:01.789Z,6.50
2018-03-16T22:22:29.777Z,6.27
2018-03-16T22:24:57.646Z,6.43
2018-03-16T22:27:25.526Z,8.10
2018-03-16T22:29:53.446Z,4.13
2018-03-16T22:32:21.392Z,8.30
2018-03-16T22:34:49.404Z,8.83
2018-03-16T22:37:17.249Z,4.60
2018-03-16T22:39:45.125Z,4.93
2018-03-16T22:42:12.996Z,4.37
2018-03-16T22:44:40.905Z,8.10
2018-03-16T22:47:08.749Z,2.87
2018-03-16T22:49:36.651Z,6.23
2018-03-16T22:52:04.872Z,9.57
2018-03-16T22:54:32.853Z,5.47
2018-03-16T22:57:01.054Z,6.57
2018-03-16T22:59:28.989Z,5.73
2018-03-16T23:01:57.905Z,6.50
2018-03-16T23:04:25.910Z,9.07
2018-03-16T23:06:55.194Z,5.10
2018-03-16T23:09:23.168Z,8.60
2018-03-16T23:11:51.083Z,5.80
2018-03-16T23:14:19.213Z,5.60
2018-03-16T23:16:47.081Z,7.30
2018-03-16T23:19:16.079Z,7.13
2018-03-16T23:21:47.940Z,5.00
2018-03-16T23:24:15.821Z,5.70
2018-03-16T23:26:45.265Z,7.00
2018-03-16T23:29:13.397Z,4.90
2018-03-16T23:31:41.243Z,9.70
2018-03-16T23:34:10.189Z,9.23
2018-03-16T23:36:38.104Z,5.20
2018-03-16T23:39:08.213Z,9.63
2018-03-16T23:41:36.229Z,6.60
2018-03-16T23:44:04.211Z,7.53
2018-03-16T23:46:32.137Z,8.10
2018-03-16T23:49:00.134Z,6.80
2018-03-16T23:51:28.999Z,6.00
2018-03-16T23:53:56.901Z,7.13
2018-03-16T23:56:24.844Z,7.10
2018-03-16T23:58:52.689Z,5.80
